createdAt,value
2024-02-16T00:02:04.937Z,77.58
2024-02-16T00:04:32.192Z,78.19
2024-02-16T00:07:01.402Z,78.69
2024-02-16T00:09:28.775Z,78.45
2024-02-16T00:11:56.255Z,78.55
2024-02-16T00:14:22.996Z,78.60
2024-02-16T00:16:49.712Z,78.51
2024-02-16T00:19:18.781Z,78.54
2024-02-16T00:21:45.479Z,78.56
2024-02-16T00:24:12.157Z,78.45
2024-02-16T00:26:40.902Z,78.33
2024-02-16T00:29:07.981Z,78.54
2024-02-16T00:31:34.754Z,78.45
2024-02-16T00:34:01.651Z,78.53
2024-02-16T00:36:32.126Z,78.47
2024-02-16T00:38:59.646Z,78.55
2024-02-16T00:41:27.299Z,78.46
2024-02-16T00:43:54.115Z,78.55
2024-02-16T00:46:21.097Z,78.40
2024-02-16T00:48:48.542Z,78.45
2024-02-16T00:51:15.492Z,78.58
2024-02-16T00:53:42.359Z,78.25
2024-02-16T00:56:12.675Z,78.49
2024-02-16T00:58:43.967Z,78.29
2024-02-16T01:01:12.799Z,78.46
2024-02-16T01:03:40.032Z,78.43
2024-02-16T01:06:07.231Z,78.35
2024-02-16T01:08:36.192Z,78.49
2024-02-16T01:11:03.676Z,78.38
2024-02-16T01:13:30.512Z,78.54
2024-02-16T01:15:57.229Z,78.27
2024-02-16T01:18:23.954Z,78.26
2024-02-16T01:20:53.343Z,78.35
2024-02-16T01:23:20.883Z,78.38
2024-02-16T01:25:47.824Z,78.35
2024-02-16T01:28:17.367Z,78.53
2024-02-16T01:30:44.400Z,78.30
2024-02-16T01:33:11.822Z,78.50
2024-02-16T01:35:38.798Z,78.46
2024-02-16T01:38:06.604Z,78.25
2024-02-16T01:40:33.251Z,78.23
2024-02-16T01:42:59.889Z,78.23
2024-02-16T01:45:29.539Z,78.40
2024-02-16T01:47:56.914Z,78.40
2024-02-16T01:50:24.150Z,78.44
2024-02-16T01:52:51.472Z,78.78
2024-02-16T01:55:18.267Z,78.63
2024-02-16T01:57:47.024Z,78.51
2024-02-16T02:00:16.503Z,78.47
2024-02-16T02:02:48.512Z,78.52
2024-02-16T02:05:16.675Z,78.39
2024-02-16T02:07:44.291Z,78.34
2024-02-16T02:10:14.725Z,78.52
2024-02-16T02:12:43.496Z,78.39
2024-02-16T02:15:10.571Z,78.47
2024-02-16T02:17:37.614Z,78.41
2024-02-16T02:20:05.538Z,78.56
2024-02-16T02:22:32.386Z,78.69
2024-02-16T02:24:59.401Z,78.51
2024-02-16T02:27:26.096Z,78.52
2024-02-16T02:29:52.864Z,78.43
2024-02-16T02:32:19.572Z,78.50
2024-02-16T02:34:46.272Z,78.54
2024-02-16T02:37:13.193Z,78.32
2024-02-16T02:39:39.871Z,78.53
2024-02-16T02:42:06.824Z,78.59
2024-02-16T02:44:33.718Z,78.62
2024-02-16T02:47:02.752Z,78.65
2024-02-16T02:49:32.404Z,78.91
2024-02-16T02:51:59.083Z,78.53
2024-02-16T02:54:25.772Z,78.61
2024-02-16T02:56:52.460Z,78.65
2024-02-16T02:59:19.233Z,78.69
2024-02-16T03:01:46.799Z,78.79
2024-02-16T03:04:13.509Z,78.85
2024-02-16T03:06:40.231Z,78.76
2024-02-16T03:09:09.281Z,78.73
2024-02-16T03:11:36.935Z,78.87
2024-02-16T03:14:04.364Z,78.77
2024-02-16T03:16:31.056Z,78.48
2024-02-16T03:18:58.480Z,78.37
2024-02-16T03:21:28.379Z,78.83
2024-02-16T03:23:55.113Z,78.53
2024-02-16T03:26:22.000Z,78.67
2024-02-16T03:28:51.384Z,78.79
2024-02-16T03:31:19.315Z,78.73
2024-02-16T03:33:46.095Z,78.95
2024-02-16T03:36:14.844Z,78.82
2024-02-16T03:38:48.399Z,78.84
2024-02-16T03:41:16.599Z,78.75
2024-02-16T03:43:44.033Z,78.76
2024-02-16T03:46:11.191Z,78.89
2024-02-16T03:48:38.221Z,78.91
2024-02-16T03:51:05.314Z,78.87
2024-02-16T03:53:32.147Z,78.98
2024-02-16T03:55:58.808Z,79.02
2024-02-16T03:58:26.072Z,79.00
2024-02-16T04:00:56.132Z,78.96
2024-02-16T04:03:22.983Z,79.09
2024-02-16T04:05:49.738Z,79.16
2024-02-16T04:08:16.572Z,79.04
2024-02-16T04:10:43.324Z,79.25
2024-02-16T04:13:10.004Z,79.00
2024-02-16T04:15:36.761Z,79.07
2024-02-16T04:18:03.848Z,79.20
2024-02-16T04:20:30.594Z,79.19
2024-02-16T04:22:57.214Z,79.18
2024-02-16T04:25:23.874Z,79.25
2024-02-16T04:27:50.644Z,79.33
2024-02-16T04:30:19.782Z,79.35
2024-02-16T04:32:46.506Z,79.12
2024-02-16T04:35:13.646Z,79.37
2024-02-16T04:37:43.494Z,79.21
2024-02-16T04:40:16.551Z,79.37
2024-02-16T04:42:43.231Z,79.30
2024-02-16T04:45:13.428Z,79.21
2024-02-16T04:47:40.450Z,79.44
2024-02-16T04:50:11.062Z,79.36
2024-02-16T04:52:41.921Z,79.48
2024-02-16T04:55:09.263Z,79.21
2024-02-16T04:57:36.146Z,79.81
2024-02-16T05:00:03.465Z,79.39
2024-02-16T05:02:30.170Z,79.56
2024-02-16T05:04:57.812Z,79.36
2024-02-16T05:07:25.933Z,79.44
2024-02-16T05:09:57.003Z,79.33
2024-02-16T05:12:23.751Z,79.39
2024-02-16T05:14:54.210Z,79.37
2024-02-16T05:17:24.037Z,79.46
2024-02-16T05:19:51.211Z,79.39
2024-02-16T05:22:20.032Z,79.51
2024-02-16T05:24:47.423Z,79.44
2024-02-16T05:27:14.470Z,79.60
2024-02-16T05:29:41.795Z,79.43
2024-02-16T05:32:11.707Z,79.49
2024-02-16T05:34:43.936Z,79.59
2024-02-16T05:37:10.785Z,79.79
2024-02-16T05:39:54.612Z,79.49
2024-02-16T05:42:24.715Z,79.44
2024-02-16T05:44:53.900Z,79.75
2024-02-16T05:47:20.585Z,79.58
2024-02-16T05:49:47.959Z,79.72
2024-02-16T05:52:21.815Z,79.46
2024-02-16T05:54:50.549Z,79.66
2024-02-16T05:57:18.097Z,79.66
2024-02-16T05:59:48.027Z,79.61
2024-02-16T06:02:15.569Z,79.30
2024-02-16T06:04:42.975Z,79.42
2024-02-16T06:07:12.411Z,79.48
2024-02-16T06:09:39.210Z,79.42
2024-02-16T06:12:08.271Z,79.50
2024-02-16T06:14:35.363Z,79.88
2024-02-16T06:17:01.963Z,79.50
2024-02-16T06:19:28.907Z,79.84
2024-02-16T06:21:56.335Z,79.64
2024-02-16T06:24:24.110Z,79.60
2024-02-16T06:26:55.809Z,79.37
2024-02-16T06:29:24.192Z,79.44
2024-02-16T06:31:53.579Z,79.75
2024-02-16T06:34:21.118Z,79.51
2024-02-16T06:36:48.105Z,79.34
2024-02-16T06:39:18.066Z,79.79
2024-02-16T06:41:46.561Z,79.56
2024-02-16T06:44:18.467Z,79.73
2024-02-16T06:46:46.697Z,79.37
2024-02-16T06:49:13.397Z,79.41
2024-02-16T06:51:42.805Z,79.40
2024-02-16T06:54:09.541Z,79.04
2024-02-16T06:56:37.081Z,79.49
2024-02-16T06:59:04.119Z,79.44
2024-02-16T07:01:30.890Z,79.34
2024-02-16T07:03:57.670Z,79.55
2024-02-16T07:06:24.470Z,79.44
2024-02-16T07:08:51.959Z,79.62
2024-02-16T07:11:19.898Z,79.53
2024-02-16T07:13:47.592Z,79.24
2024-02-16T07:16:14.250Z,79.53
2024-02-16T07:18:41.065Z,79.38
2024-02-16T07:21:07.776Z,79.21
2024-02-16T07:23:34.565Z,79.20
2024-02-16T07:26:07.523Z,79.29
2024-02-16T07:28:34.798Z,79.08
2024-02-16T07:31:01.552Z,78.83
2024-02-16T07:33:29.916Z,80.54
2024-02-16T07:35:57.197Z,80.99
2024-02-16T07:38:24.102Z,80.98
2024-02-16T07:40:51.887Z,80.32
2024-02-16T07:43:19.826Z,79.87
2024-02-16T07:45:46.919Z,79.68
2024-02-16T07:48:13.999Z,79.84
2024-02-16T07:50:40.800Z,79.26
2024-02-16T07:53:07.543Z,79.04
2024-02-16T07:55:34.219Z,78.57
2024-02-16T07:58:00.954Z,78.38
2024-02-16T08:00:27.759Z,78.47
2024-02-16T08:02:54.723Z,78.73
2024-02-16T08:05:21.539Z,78.97
2024-02-16T08:07:48.687Z,79.17
2024-02-16T08:10:17.681Z,79.07
2024-02-16T08:12:47.702Z,79.18
2024-02-16T08:15:16.531Z,79.19
2024-02-16T08:17:45.485Z,79.08
2024-02-16T08:20:12.907Z,79.39
2024-02-16T08:22:39.769Z,79.17
2024-02-16T08:25:07.872Z,79.04
2024-02-16T08:27:34.753Z,79.12
2024-02-16T08:30:03.304Z,79.31
2024-02-16T08:32:30.952Z,79.44
2024-02-16T08:34:59.690Z,79.48
2024-02-16T08:37:26.884Z,79.35
2024-02-16T08:39:54.118Z,79.45
2024-02-16T08:42:20.954Z,79.57
2024-02-16T08:44:47.886Z,79.24
2024-02-16T08:47:14.558Z,79.38
2024-02-16T08:49:43.548Z,79.27
2024-02-16T08:52:10.355Z,79.11
2024-02-16T08:54:38.220Z,79.72
2024-02-16T08:57:07.411Z,79.54
2024-02-16T08:59:35.570Z,79.68
2024-02-16T09:02:07.185Z,79.42
2024-02-16T09:04:35.258Z,79.48
2024-02-16T09:07:04.576Z,79.63
2024-02-16T09:09:32.268Z,79.57
2024-02-16T09:11:58.953Z,79.77
2024-02-16T09:14:25.885Z,79.81
2024-02-16T09:16:52.966Z,79.63
2024-02-16T09:19:21.167Z,79.78
2024-02-16T09:21:50.719Z,79.85
2024-02-16T09:24:19.250Z,79.79
2024-02-16T09:26:49.455Z,79.97
2024-02-16T09:29:16.234Z,79.62
2024-02-16T09:31:43.363Z,79.79
2024-02-16T09:34:10.780Z,79.75
2024-02-16T09:36:40.001Z,79.65
2024-02-16T09:39:07.287Z,79.37
2024-02-16T09:41:39.916Z,79.60
2024-02-16T09:44:07.653Z,79.46
2024-02-16T09:46:34.866Z,79.75
2024-02-16T09:49:04.267Z,79.44
2024-02-16T09:51:31.795Z,79.53
2024-02-16T09:53:59.853Z,79.46
2024-02-16T09:56:26.944Z,79.68
2024-02-16T09:58:56.397Z,79.68
2024-02-16T10:01:24.631Z,79.36
2024-02-16T10:03:51.918Z,79.52
2024-02-16T10:06:19.273Z,79.62
2024-02-16T10:08:54.500Z,79.23
2024-02-16T10:11:26.206Z,79.20
2024-02-16T10:14:05.425Z,79.47
2024-02-16T10:16:34.828Z,79.23
2024-02-16T10:19:14.695Z,79.04
2024-02-16T10:21:43.955Z,79.07
2024-02-16T10:24:16.138Z,79.06
2024-02-16T10:26:43.028Z,78.81
2024-02-16T10:29:12.249Z,78.82
2024-02-16T10:31:39.190Z,78.69
2024-02-16T10:34:08.149Z,78.63
2024-02-16T10:36:39.735Z,78.64
2024-02-16T10:39:08.083Z,78.34
2024-02-16T10:41:37.277Z,78.34
2024-02-16T10:44:05.496Z,78.41
2024-02-16T10:46:33.033Z,79.36
2024-02-16T10:49:00.702Z,79.67
2024-02-16T10:51:40.038Z,79.09
2024-02-16T10:54:08.377Z,78.51
2024-02-16T10:56:37.110Z,78.52
2024-02-16T10:59:10.145Z,78.22
2024-02-16T11:01:46.473Z,77.50
2024-02-16T11:04:21.883Z,77.28
2024-02-16T11:06:58.114Z,77.13
2024-02-16T11:09:30.601Z,76.80
2024-02-16T11:12:02.325Z,76.70
2024-02-16T11:14:39.539Z,76.58
2024-02-16T11:17:17.147Z,76.59
2024-02-16T11:19:45.610Z,76.30
2024-02-16T11:22:19.746Z,76.24
2024-02-16T11:24:53.392Z,75.88
2024-02-16T11:27:21.256Z,75.84
2024-02-16T11:29:49.693Z,75.61
2024-02-16T11:32:16.574Z,75.99
2024-02-16T11:34:43.575Z,75.43
2024-02-16T11:37:10.529Z,75.50
2024-02-16T11:39:41.959Z,75.34
2024-02-16T11:42:13.925Z,75.21
2024-02-16T11:44:42.314Z,74.98
2024-02-16T11:47:18.355Z,74.91
2024-02-16T11:49:45.715Z,74.93
2024-02-16T11:52:12.611Z,74.57
2024-02-16T11:54:39.357Z,74.80
2024-02-16T11:57:08.277Z,74.39
2024-02-16T11:59:35.085Z,74.52
2024-02-16T12:02:01.746Z,74.41
2024-02-16T12:04:30.495Z,74.36
2024-02-16T12:07:05.833Z,74.16
2024-02-16T12:09:36.480Z,73.90
2024-02-16T12:12:04.422Z,73.74
2024-02-16T12:14:31.269Z,73.96
2024-02-16T12:16:59.214Z,73.66
2024-02-16T12:19:28.984Z,73.23
2024-02-16T12:22:00.046Z,73.38
2024-02-16T12:24:26.780Z,73.31
2024-02-16T12:26:55.884Z,73.22
2024-02-16T12:29:22.578Z,72.95
2024-02-16T12:31:50.662Z,73.16
2024-02-16T12:34:17.725Z,73.02
2024-02-16T12:36:47.429Z,72.91
2024-02-16T12:39:17.346Z,72.90
2024-02-16T12:41:45.331Z,72.83
2024-02-16T12:44:12.165Z,72.66
2024-02-16T12:46:40.352Z,72.47
2024-02-16T12:49:07.639Z,72.51
2024-02-16T12:51:34.584Z,72.16
2024-02-16T12:54:05.234Z,71.99
2024-02-16T12:56:34.523Z,71.76
2024-02-16T12:59:02.942Z,71.55
2024-02-16T13:01:29.910Z,71.40
2024-02-16T13:03:56.627Z,71.42
2024-02-16T13:06:28.087Z,71.37
2024-02-16T13:08:56.485Z,71.63
2024-02-16T13:11:23.502Z,71.53
2024-02-16T13:13:50.242Z,71.36
2024-02-16T13:16:17.132Z,71.35
2024-02-16T13:18:44.011Z,71.73
2024-02-16T13:21:10.870Z,71.30
2024-02-16T13:23:37.561Z,71.22
2024-02-16T13:26:05.714Z,71.29
2024-02-16T13:28:32.452Z,71.03
2024-02-16T13:31:00.085Z,71.41
2024-02-16T13:33:27.605Z,71.13
2024-02-16T13:35:56.116Z,70.89
2024-02-16T13:38:22.935Z,71.05
2024-02-16T13:40:50.472Z,70.74
2024-02-16T13:43:17.896Z,70.70
2024-02-16T13:45:52.800Z,70.39
2024-02-16T13:48:23.124Z,70.35
2024-02-16T13:50:55.671Z,70.26
2024-02-16T13:53:25.728Z,69.82
2024-02-16T13:55:52.384Z,69.66
2024-02-16T13:58:19.222Z,69.63
2024-02-16T14:00:46.190Z,69.35
2024-02-16T14:03:15.782Z,69.47
2024-02-16T14:05:45.373Z,69.46
2024-02-16T14:08:13.835Z,69.38
2024-02-16T14:10:40.704Z,69.38
2024-02-16T14:13:07.672Z,68.78
2024-02-16T14:15:34.417Z,68.94
2024-02-16T14:18:06.532Z,69.29
2024-02-16T14:20:38.974Z,69.10
2024-02-16T14:23:09.101Z,68.60
2024-02-16T14:25:38.757Z,68.33
2024-02-16T14:28:06.309Z,67.70
2024-02-16T14:30:35.834Z,68.41
2024-02-16T14:33:05.892Z,68.10
2024-02-16T14:35:37.310Z,68.16
2024-02-16T14:38:06.222Z,68.44
2024-02-16T14:40:34.163Z,68.38
2024-02-16T14:43:01.753Z,68.20
2024-02-16T14:45:28.520Z,68.08
2024-02-16T14:47:55.365Z,68.29
2024-02-16T14:50:25.881Z,68.15
2024-02-16T14:52:54.959Z,67.92
2024-02-16T14:55:21.995Z,68.09
2024-02-16T14:57:49.020Z,68.50
2024-02-16T15:00:16.323Z,68.36
2024-02-16T15:02:43.899Z,68.72
2024-02-16T15:05:10.998Z,68.67
2024-02-16T15:07:37.885Z,69.30
2024-02-16T15:10:05.113Z,69.08
2024-02-16T15:12:35.056Z,69.81
2024-02-16T15:15:01.919Z,70.28
2024-02-16T15:17:28.784Z,70.58
2024-02-16T15:19:55.917Z,70.80
2024-02-16T15:22:23.029Z,70.95
2024-02-16T15:24:50.050Z,70.63
2024-02-16T15:27:16.750Z,71.29
2024-02-16T15:29:44.862Z,70.87
2024-02-16T15:32:11.805Z,70.89
2024-02-16T15:34:38.539Z,70.63
2024-02-16T15:37:05.483Z,70.61
2024-02-16T15:39:32.189Z,70.42
2024-02-16T15:41:59.394Z,70.45
2024-02-16T15:44:26.113Z,70.54
2024-02-16T15:46:52.745Z,70.05
2024-02-16T15:49:19.984Z,70.49
2024-02-16T15:51:51.969Z,70.46
2024-02-16T15:54:18.997Z,70.61
2024-02-16T15:56:45.612Z,70.23
2024-02-16T15:59:12.263Z,70.34
2024-02-16T16:01:38.908Z,70.61
2024-02-16T16:04:05.786Z,70.34
2024-02-16T16:06:32.691Z,70.46
2024-02-16T16:08:59.464Z,70.51
2024-02-16T16:11:26.214Z,70.37
2024-02-16T16:13:53.015Z,70.70
2024-02-16T16:16:19.609Z,70.59
2024-02-16T16:18:46.358Z,70.93
2024-02-16T16:21:15.611Z,70.95
2024-02-16T16:23:42.210Z,70.98
2024-02-16T16:26:11.851Z,70.62
2024-02-16T16:28:38.408Z,70.65
2024-02-16T16:31:05.899Z,70.54
2024-02-16T16:33:32.702Z,70.83
2024-02-16T16:36:04.399Z,70.84
2024-02-16T16:38:34.185Z,70.97
2024-02-16T16:41:03.952Z,70.99
2024-02-16T16:43:30.589Z,71.00
2024-02-16T16:45:57.185Z,71.07
2024-02-16T16:48:24.101Z,71.25
2024-02-16T16:50:53.141Z,71.15
2024-02-16T16:53:21.711Z,71.28
2024-02-16T16:55:48.442Z,71.06
2024-02-16T16:58:15.073Z,71.17
2024-02-16T17:00:41.834Z,71.10
2024-02-16T17:03:08.673Z,71.37
2024-02-16T17:05:36.532Z,71.41
2024-02-16T17:08:03.295Z,71.34
2024-02-16T17:10:30.025Z,71.56
2024-02-16T17:12:56.684Z,71.15
2024-02-16T17:15:23.612Z,71.51
2024-02-16T17:17:53.907Z,71.01
2024-02-16T17:20:26.235Z,71.44
2024-02-16T17:22:54.896Z,71.39
2024-02-16T17:25:23.516Z,71.22
2024-02-16T17:27:50.574Z,71.29
2024-02-16T17:30:21.117Z,71.70
2024-02-16T17:32:51.556Z,71.34
2024-02-16T17:35:18.632Z,71.33
2024-02-16T17:37:46.777Z,71.46
2024-02-16T17:40:13.816Z,71.66
2024-02-16T17:42:40.770Z,71.65
2024-02-16T17:45:08.261Z,71.52
2024-02-16T17:47:35.952Z,71.20
2024-02-16T17:50:03.819Z,71.34
2024-02-16T17:52:30.922Z,71.41
2024-02-16T17:54:58.125Z,72.21
2024-02-16T17:57:24.889Z,73.21
2024-02-16T17:59:52.954Z,74.25
2024-02-16T18:02:29.256Z,75.59
2024-02-16T18:05:05.427Z,76.58
2024-02-16T18:07:32.095Z,77.60
2024-02-16T18:09:58.797Z,78.14
2024-02-16T18:12:25.552Z,79.10
2024-02-16T18:14:52.347Z,79.85
2024-02-16T18:17:21.924Z,80.70
2024-02-16T18:19:49.007Z,80.81
2024-02-16T18:22:15.884Z,80.88
2024-02-16T18:24:43.537Z,80.64
2024-02-16T18:27:13.540Z,80.72
2024-02-16T18:29:40.564Z,81.76
2024-02-16T18:32:07.188Z,82.73
2024-02-16T18:34:34.033Z,82.63
2024-02-16T18:37:00.872Z,83.22
2024-02-16T18:39:30.420Z,82.82
2024-02-16T18:41:58.411Z,82.98
2024-02-16T18:44:27.364Z,83.15
2024-02-16T18:46:54.068Z,82.60
2024-02-16T18:49:21.974Z,83.03
2024-02-16T18:51:48.761Z,82.53
2024-02-16T18:54:15.443Z,82.44
2024-02-16T18:56:44.946Z,82.22
2024-02-16T18:59:13.671Z,82.00
2024-02-16T19:01:40.686Z,82.01
2024-02-16T19:04:07.626Z,81.63
2024-02-16T19:06:36.999Z,81.68
2024-02-16T19:09:04.841Z,81.66
2024-02-16T19:11:32.505Z,81.07
2024-02-16T19:13:59.551Z,80.03
2024-02-16T19:16:29.208Z,79.66
2024-02-16T19:18:59.030Z,78.65
2024-02-16T19:21:25.840Z,77.62
2024-02-16T19:23:52.682Z,77.56
2024-02-16T19:26:20.280Z,78.12
2024-02-16T19:28:47.000Z,78.53
2024-02-16T19:31:14.702Z,78.89
2024-02-16T19:33:41.645Z,79.04
2024-02-16T19:36:10.042Z,79.58
2024-02-16T19:38:37.807Z,79.50
2024-02-16T19:41:05.054Z,80.13
2024-02-16T19:43:31.836Z,80.10
2024-02-16T19:46:00.071Z,80.12
2024-02-16T19:48:26.958Z,80.53
2024-02-16T19:50:54.459Z,80.41
2024-02-16T19:53:22.102Z,80.28
2024-02-16T19:55:49.234Z,80.48
2024-02-16T19:58:16.032Z,80.41
2024-02-16T20:00:43.760Z,80.42
2024-02-16T20:03:10.732Z,80.82
2024-02-16T20:05:37.672Z,80.38
2024-02-16T20:08:07.318Z,80.83
2024-02-16T20:10:34.021Z,80.92
2024-02-16T20:13:00.718Z,80.70
2024-02-16T20:15:31.566Z,80.70
2024-02-16T20:17:59.786Z,80.56
2024-02-16T20:20:27.893Z,80.71
2024-02-16T20:22:57.805Z,80.68
2024-02-16T20:25:24.588Z,80.73
2024-02-16T20:27:55.435Z,80.66
2024-02-16T20:30:27.695Z,80.64
2024-02-16T20:32:55.645Z,80.61
2024-02-16T20:35:25.417Z,80.72
2024-02-16T20:37:54.373Z,80.82
2024-02-16T20:40:21.332Z,80.46
2024-02-16T20:42:48.015Z,80.55
2024-02-16T20:45:17.751Z,80.56
2024-02-16T20:47:44.809Z,80.69
2024-02-16T20:50:13.901Z,80.68
2024-02-16T20:52:40.571Z,80.64
2024-02-16T20:55:07.918Z,80.61
2024-02-16T20:57:37.570Z,80.29
2024-02-16T21:00:09.204Z,80.51
2024-02-16T21:02:35.923Z,81.25
2024-02-16T21:05:02.539Z,80.40
2024-02-16T21:07:29.313Z,80.10
2024-02-16T21:09:57.328Z,79.90
2024-02-16T21:12:24.293Z,79.97
2024-02-16T21:14:51.002Z,80.02
2024-02-16T21:17:19.786Z,80.28
2024-02-16T21:19:47.860Z,80.33
2024-02-16T21:22:14.911Z,80.16
2024-02-16T21:24:41.676Z,80.31
2024-02-16T21:27:08.440Z,80.38
2024-02-16T21:29:38.799Z,80.28
2024-02-16T21:32:05.881Z,80.37
2024-02-16T21:34:32.557Z,80.23
2024-02-16T21:36:59.380Z,80.13
2024-02-16T21:39:26.189Z,80.31
2024-02-16T21:41:52.920Z,80.53
2024-02-16T21:44:19.554Z,80.39
2024-02-16T21:46:46.393Z,80.16
2024-02-16T21:49:13.321Z,80.36
2024-02-16T21:51:40.725Z,80.10
2024-02-16T21:54:10.232Z,80.23
2024-02-16T21:56:37.029Z,79.95
2024-02-16T21:59:03.889Z,79.74
2024-02-16T22:01:33.084Z,80.05
2024-02-16T22:03:59.924Z,79.92
2024-02-16T22:06:28.740Z,80.02
2024-02-16T22:08:58.190Z,79.90
2024-02-16T22:11:29.376Z,79.75
2024-02-16T22:13:56.155Z,79.55
2024-02-16T22:16:25.036Z,79.50
2024-02-16T22:18:52.430Z,79.48
2024-02-16T22:21:22.464Z,79.50
2024-02-16T22:23:58.973Z,79.18
2024-02-16T22:26:25.656Z,79.29
2024-02-16T22:28:52.440Z,79.00
2024-02-16T22:31:23.949Z,78.90
2024-02-16T22:33:52.272Z,78.89
2024-02-16T22:36:19.099Z,78.84
2024-02-16T22:38:45.828Z,78.64
2024-02-16T22:41:13.913Z,78.77
2024-02-16T22:43:42.821Z,78.69
2024-02-16T22:46:09.498Z,78.71
2024-02-16T22:48:36.187Z,78.32
2024-02-16T22:51:04.531Z,78.11
2024-02-16T22:53:31.132Z,78.10
2024-02-16T22:55:57.866Z,78.26
2024-02-16T22:58:25.156Z,77.83
2024-02-16T23:00:54.030Z,78.13
2024-02-16T23:03:23.275Z,78.04
2024-02-16T23:05:53.312Z,78.15
2024-02-16T23:08:20.607Z,78.25
2024-02-16T23:10:47.639Z,78.03
2024-02-16T23:13:16.005Z,77.39
2024-02-16T23:15:42.849Z,77.88
2024-02-16T23:18:09.840Z,77.47
2024-02-16T23:20:36.536Z,78.06
2024-02-16T23:23:11.160Z,77.56
2024-02-16T23:25:48.561Z,77.89
2024-02-16T23:28:17.691Z,77.80
2024-02-16T23:30:47.226Z,77.81
2024-02-16T23:33:14.488Z,78.03
2024-02-16T23:35:41.311Z,78.16
2024-02-16T23:38:08.163Z,77.87
2024-02-16T23:40:34.874Z,78.06
2024-02-16T23:43:01.474Z,77.90
2024-02-16T23:45:33.736Z,78.10
2024-02-16T23:48:00.757Z,78.54
2024-02-16T23:50:28.297Z,78.13
2024-02-16T23:52:58.481Z,78.53
2024-02-16T23:55:25.194Z,78.30
2024-02-16T23:57:53.498Z,78.35
